sensor_id;sensor_type;location;lat;lon;timestamp;pressure;altitude;pressure_sealevel;temperature;humidity
8294;BME280;4185;41.506;24.938;2024-03-23T00:54:30;93617.53;;;1.66;73.23
8294;BME280;4185;41.506;24.938;2024-03-23T00:56:57;93610.66;;;1.65;72.99
8294;BME280;4185;41.506;24.938;2024-03-23T00:59:23;93609.69;;;1.59;73.92
8294;BME280;4185;41.506;24.938;2024-03-23T01:01:52;93604.88;;;1.54;73.92
8294;BME280;4185;41.506;24.938;2024-03-23T01:04:18;93599.69;;;1.47;74.16
8294;BME280;4185;41.506;24.938;2024-03-23T01:06:45;93600.22;;;1.42;74.04
8294;BME280;4185;41.506;24.938;2024-03-23T01:09:12;93600.00;;;1.36;74.32
8294;BME280;4185;41.506;24.938;2024-03-23T01:11:39;93596.34;;;1.30;74.77
8294;BME280;4185;41.506;24.938;2024-03-23T01:14:05;93598.50;;;1.35;75.13
8294;BME280;4185;41.506;24.938;2024-03-23T01:16:31;93601.91;;;1.36;74.83
8294;BME280;4185;41.506;24.938;2024-03-23T01:18:57;93584.13;;;1.29;74.47
8294;BME280;4185;41.506;24.938;2024-03-23T01:21:24;93590.91;;;1.34;75.36
8294;BME280;4185;41.506;24.938;2024-03-23T01:23:50;93591.09;;;1.39;74.31
8294;BME280;4185;41.506;24.938;2024-03-23T01:26:18;93584.50;;;1.44;74.52
8294;BME280;4185;41.506;24.938;2024-03-23T01:28:44;93587.38;;;1.49;74.32
8294;BME280;4185;41.506;24.938;2024-03-23T01:31:10;93589.34;;;1.49;74.31
8294;BME280;4185;41.506;24.938;2024-03-23T01:33:36;93582.22;;;1.42;74.43
8294;BME280;4185;41.506;24.938;2024-03-23T01:36:03;93584.91;;;1.42;74.43
8294;BME280;4185;41.506;24.938;2024-03-23T01:38:30;93584.28;;;1.38;74.95
8294;BME280;4185;41.506;24.938;2024-03-23T01:40:57;93580.75;;;1.41;74.95
8294;BME280;4185;41.506;24.938;2024-03-23T01:43:24;93589.84;;;1.44;74.52
8294;BME280;4185;41.506;24.938;2024-03-23T01:45:51;93584.19;;;1.54;74.01
8294;BME280;4185;41.506;24.938;2024-03-23T01:48:19;93592.22;;;1.54;73.85
8294;BME280;4185;41.506;24.938;2024-03-23T01:50:46;93586.13;;;1.54;73.93
8294;BME280;4185;41.506;24.938;2024-03-23T01:53:12;93583.56;;;1.50;74.17
8294;BME280;4185;41.506;24.938;2024-03-23T01:55:42;93584.50;;;1.44;74.11
8294;BME280;4185;41.506;24.938;2024-03-23T01:58:08;93584.19;;;1.42;74.64
8294;BME280;4185;41.506;24.938;2024-03-23T02:00:36;93588.44;;;1.39;74.81
8294;BME280;4185;41.506;24.938;2024-03-23T02:03:02;93587.47;;;1.33;75.22
8294;BME280;4185;41.506;24.938;2024-03-23T02:05:29;93579.53;;;1.30;74.54
8294;BME280;4185;41.506;24.938;2024-03-23T02:07:55;93578.88;;;1.25;74.88
8294;BME280;4185;41.506;24.938;2024-03-23T02:10:22;93578.78;;;1.29;75.35
8294;BME280;4185;41.506;24.938;2024-03-23T02:12:48;93578.88;;;1.25;74.93
8294;BME280;4185;41.506;24.938;2024-03-23T02:15:15;93582.31;;;1.26;74.97
8294;BME280;4185;41.506;24.938;2024-03-23T02:17:43;93589.25;;;1.23;75.18
8294;BME280;4185;41.506;24.938;2024-03-23T02:20:11;93582.81;;;1.21;75.13
8294;BME280;4185;41.506;24.938;2024-03-23T02:22:37;93589.88;;;1.15;76.09
8294;BME280;4185;41.506;24.938;2024-03-23T02:25:06;93589.88;;;1.15;75.34
8294;BME280;4185;41.506;24.938;2024-03-23T02:27:32;93596.06;;;1.12;75.82
8294;BME280;4185;41.506;24.938;2024-03-23T02:30:00;93596.06;;;1.12;75.52
8294;BME280;4185;41.506;24.938;2024-03-23T02:32:25;93586.31;;;1.05;75.65
8294;BME280;4185;41.506;24.938;2024-03-23T02:34:52;93594.84;;;1.00;76.12
8294;BME280;4185;41.506;24.938;2024-03-23T02:37:18;93592.34;;;0.93;76.27
8294;BME280;4185;41.506;24.938;2024-03-23T02:39:45;93594.81;;;0.88;76.59
8294;BME280;4185;41.506;24.938;2024-03-23T02:42:12;93585.94;;;0.91;76.50
8294;BME280;4185;41.506;24.938;2024-03-23T02:44:38;93590.53;;;0.90;76.12
8294;BME280;4185;41.506;24.938;2024-03-23T02:47:05;93586.78;;;0.88;75.85
8294;BME280;4185;41.506;24.938;2024-03-23T02:49:32;93580.84;;;0.80;76.21
8294;BME280;4185;41.506;24.938;2024-03-23T02:51:58;93583.19;;;0.78;76.63
8294;BME280;4185;41.506;24.938;2024-03-23T02:54:24;93585.63;;;0.73;76.65
8294;BME280;4185;41.506;24.938;2024-03-23T02:56:50;93583.28;;;0.75;76.68
8294;BME280;4185;41.506;24.938;2024-03-23T02:59:18;93582.63;;;0.71;77.13
8294;BME280;4185;41.506;24.938;2024-03-23T03:01:44;93582.81;;;0.64;77.48
8294;BME280;4185;41.506;24.938;2024-03-23T03:04:11;93590.50;;;0.62;77.17
8294;BME280;4185;41.506;24.938;2024-03-23T03:06:36;93589.19;;;0.54;77.46
8294;BME280;4185;41.506;24.938;2024-03-23T03:09:03;93585.66;;;0.57;77.44
8294;BME280;4185;41.506;24.938;2024-03-23T03:11:29;93586.00;;;0.59;77.83
8294;BME280;4185;41.506;24.938;2024-03-23T03:13:57;93577.47;;;0.64;77.81
8294;BME280;4185;41.506;24.938;2024-03-23T03:16:26;93585.47;;;0.64;77.86
8294;BME280;4185;41.506;24.938;2024-03-23T03:18:53;93585.22;;;0.58;77.50
8294;BME280;4185;41.506;24.938;2024-03-23T03:21:19;93587.56;;;0.56;77.97
8294;BME280;4185;41.506;24.938;2024-03-23T03:23:46;93592.19;;;0.56;78.08
8294;BME280;4185;41.506;24.938;2024-03-23T03:26:13;93589.19;;;0.54;78.04
8294;BME280;4185;41.506;24.938;2024-03-23T03:28:39;93586.16;;;0.52;78.28
8294;BME280;4185;41.506;24.938;2024-03-23T03:31:05;93593.94;;;0.46;78.00
8294;BME280;4185;41.506;24.938;2024-03-23T03:33:33;93596.19;;;0.48;77.73
8294;BME280;4185;41.506;24.938;2024-03-23T03:35:59;93589.44;;;0.43;77.71
8294;BME280;4185;41.506;24.938;2024-03-23T03:38:26;93592.94;;;0.40;77.80
8294;BME280;4185;41.506;24.938;2024-03-23T03:40:51;93587.09;;;0.45;78.35
8294;BME280;4185;41.506;24.938;2024-03-23T03:43:18;93590.50;;;0.46;77.72
8294;BME280;4185;41.506;24.938;2024-03-23T03:45:51;93594.00;;;0.43;77.58
8294;BME280;4185;41.506;24.938;2024-03-23T03:48:18;93589.84;;;0.42;77.47
8294;BME280;4185;41.506;24.938;2024-03-23T03:50:45;93593.38;;;0.39;77.86
8294;BME280;4185;41.506;24.938;2024-03-23T03:53:12;93594.84;;;0.40;77.93
8294;BME280;4185;41.506;24.938;2024-03-23T03:55:37;93588.09;;;0.35;78.46
8294;BME280;4185;41.506;24.938;2024-03-23T03:58:04;93590.44;;;0.33;78.17
8294;BME280;4185;41.506;24.938;2024-03-23T04:00:30;93594.38;;;0.29;78.51
8294;BME280;4185;41.506;24.938;2024-03-23T04:02:57;93589.84;;;0.26;77.97
8294;BME280;4185;41.506;24.938;2024-03-23T04:05:23;93593.84;;;0.18;78.67
8294;BME280;4185;41.506;24.938;2024-03-23T04:07:51;93583.94;;;0.18;78.43
8294;BME280;4185;41.506;24.938;2024-03-23T04:10:16;93592.69;;;0.19;78.87
8294;BME280;4185;41.506;24.938;2024-03-23T04:12:43;93599.53;;;0.20;79.09
8294;BME280;4185;41.506;24.938;2024-03-23T04:15:10;93600.59;;;0.22;78.99
8294;BME280;4185;41.506;24.938;2024-03-23T04:17:36;93597.19;;;0.22;78.74
8294;BME280;4185;41.506;24.938;2024-03-23T04:20:03;93602.13;;;0.23;79.31
8294;BME280;4185;41.506;24.938;2024-03-23T04:22:34;93604.78;;;0.23;78.98
8294;BME280;4185;41.506;24.938;2024-03-23T04:25:01;93600.03;;;0.31;78.47
8294;BME280;4185;41.506;24.938;2024-03-23T04:27:31;93602.78;;;0.27;78.85
8294;BME280;4185;41.506;24.938;2024-03-23T04:29:57;93606.19;;;0.28;78.26
8294;BME280;4185;41.506;24.938;2024-03-23T04:32:26;93599.72;;;0.29;78.68
8294;BME280;4185;41.506;24.938;2024-03-23T04:34:52;93602.69;;;0.31;78.00
8294;BME280;4185;41.506;24.938;2024-03-23T04:37:19;93611.38;;;0.35;77.93
8294;BME280;4185;41.506;24.938;2024-03-23T04:39:46;93605.06;;;0.29;78.58
8294;BME280;4185;41.506;24.938;2024-03-23T04:42:14;93607.53;;;0.20;78.75
8294;BME280;4185;41.506;24.938;2024-03-23T04:44:42;93605.72;;;0.17;78.31
8294;BME280;4185;41.506;24.938;2024-03-23T04:47:09;93604.53;;;0.18;78.62
8294;BME280;4185;41.506;24.938;2024-03-23T04:49:35;93604.53;;;0.18;78.93
8294;BME280;4185;41.506;24.938;2024-03-23T04:52:03;93611.63;;;0.24;78.74
8294;BME280;4185;41.506;24.938;2024-03-23T04:54:30;93613.88;;;0.26;78.79
8294;BME280;4185;41.506;24.938;2024-03-23T04:56:57;93603.38;;;0.19;78.59
8294;BME280;4185;41.506;24.938;2024-03-23T04:59:26;93610.56;;;0.22;78.67
8294;BME280;4185;41.506;24.938;2024-03-23T05:01:52;93618.22;;;0.20;78.56
8294;BME280;4185;41.506;24.938;2024-03-23T05:04:18;93614.22;;;0.28;78.49
8294;BME280;4185;41.506;24.938;2024-03-23T05:06:44;93608.13;;;0.27;77.57
8294;BME280;4185;41.506;24.938;2024-03-23T05:09:11;93610.41;;;0.29;77.40
8294;BME280;4185;41.506;24.938;2024-03-23T05:11:37;93611.03;;;0.33;78.30
8294;BME280;4185;41.506;24.938;2024-03-23T05:14:04;93613.97;;;0.38;77.96
8294;BME280;4185;41.506;24.938;2024-03-23T05:16:31;93610.72;;;0.47;78.15
8294;BME280;4185;41.506;24.938;2024-03-23T05:18:58;93620.47;;;0.53;78.02
8294;BME280;4185;41.506;24.938;2024-03-23T05:21:23;93617.97;;;0.62;77.55
8294;BME280;4185;41.506;24.938;2024-03-23T05:23:50;93613.19;;;0.70;77.72
8294;BME280;4185;41.506;24.938;2024-03-23T05:26:16;93610.84;;;0.72;77.64
8294;BME280;4185;41.506;24.938;2024-03-23T05:28:43;93604.66;;;0.75;77.52
8294;BME280;4185;41.506;24.938;2024-03-23T05:31:09;93601.47;;;0.80;77.32
8294;BME280;4185;41.506;24.938;2024-03-23T05:33:37;93603.88;;;0.90;77.64
8294;BME280;4185;41.506;24.938;2024-03-23T05:36:04;93607.00;;;0.89;78.27
8294;BME280;4185;41.506;24.938;2024-03-23T05:38:31;93609.81;;;0.98;77.98
8294;BME280;4185;41.506;24.938;2024-03-23T05:40:57;93603.72;;;0.97;77.97
8294;BME280;4185;41.506;24.938;2024-03-23T05:43:25;93609.59;;;1.05;77.51
8294;BME280;4185;41.506;24.938;2024-03-23T05:45:54;93604.25;;;1.05;77.71
8294;BME280;4185;41.506;24.938;2024-03-23T05:48:20;93612.69;;;1.19;77.74
8294;BME280;4185;41.506;24.938;2024-03-23T05:50:47;93605.53;;;1.29;77.70
8294;BME280;4185;41.506;24.938;2024-03-23T05:53:15;93604.50;;;1.39;77.58
8294;BME280;4185;41.506;24.938;2024-03-23T05:55:40;93606.44;;;1.51;77.28
8294;BME280;4185;41.506;24.938;2024-03-23T05:58:07;93602.72;;;1.61;76.87
8294;BME280;4185;41.506;24.938;2024-03-23T06:00:34;93605.88;;;1.72;77.75
8294;BME280;4185;41.506;24.938;2024-03-23T06:03:00;93592.16;;;1.70;76.99
8294;BME280;4185;41.506;24.938;2024-03-23T06:05:27;93595.91;;;1.85;76.68
8294;BME280;4185;41.506;24.938;2024-03-23T06:07:54;93606.41;;;1.92;76.74
8294;BME280;4185;41.506;24.938;2024-03-23T06:10:20;93605.97;;;2.06;76.13
8294;BME280;4185;41.506;24.938;2024-03-23T06:12:46;93595.38;;;2.15;76.05
8294;BME280;4185;41.506;24.938;2024-03-23T06:15:14;93589.38;;;2.24;75.82
8294;BME280;4185;41.506;24.938;2024-03-23T06:17:40;93596.34;;;2.34;75.74
8294;BME280;4185;41.506;24.938;2024-03-23T06:20:07;93598.38;;;2.42;75.52
8294;BME280;4185;41.506;24.938;2024-03-23T06:22:33;93596.50;;;2.52;75.06
8294;BME280;4185;41.506;24.938;2024-03-23T06:25:01;93592.44;;;2.60;74.62
8294;BME280;4185;41.506;24.938;2024-03-23T06:27:27;93590.28;;;2.68;75.47
8294;BME280;4185;41.506;24.938;2024-03-23T06:29:54;93595.28;;;2.78;75.80
8294;BME280;4185;41.506;24.938;2024-03-23T06:32:20;93586.16;;;2.88;75.34
8294;BME280;4185;41.506;24.938;2024-03-23T06:34:47;93584.16;;;3.01;76.17
8294;BME280;4185;41.506;24.938;2024-03-23T06:37:13;93584.38;;;3.07;75.57
8294;BME280;4185;41.506;24.938;2024-03-23T06:39:39;93583.94;;;3.08;75.92
8294;BME280;4185;41.506;24.938;2024-03-23T06:42:06;93581.44;;;3.14;75.56
8294;BME280;4185;41.506;24.938;2024-03-23T06:44:34;93576.75;;;3.27;74.72
8294;BME280;4185;41.506;24.938;2024-03-23T06:46:59;93568.78;;;3.36;74.41
8294;BME280;4185;41.506;24.938;2024-03-23T06:49:28;93575.91;;;3.51;74.55
8294;BME280;4185;41.506;24.938;2024-03-23T06:51:53;93573.44;;;3.66;74.61
8294;BME280;4185;41.506;24.938;2024-03-23T06:54:20;93566.78;;;3.80;73.54
8294;BME280;4185;41.506;24.938;2024-03-23T06:56:46;93569.53;;;3.89;72.43
8294;BME280;4185;41.506;24.938;2024-03-23T06:59:14;93569.75;;;4.03;71.68
8294;BME280;4185;41.506;24.938;2024-03-23T07:01:40;93565.91;;;4.13;71.75
8294;BME280;4185;41.506;24.938;2024-03-23T07:04:07;93574.75;;;4.23;72.09
8294;BME280;4185;41.506;24.938;2024-03-23T07:06:33;93565.53;;;4.33;71.48
8294;BME280;4185;41.506;24.938;2024-03-23T07:09:00;93562.72;;;4.45;71.57
8294;BME280;4185;41.506;24.938;2024-03-23T07:11:26;93560.50;;;4.53;71.48
8294;BME280;4185;41.506;24.938;2024-03-23T07:13:53;93562.75;;;4.63;71.08
8294;BME280;4185;41.506;24.938;2024-03-23T07:16:21;93569.94;;;4.75;71.65
8294;BME280;4185;41.506;24.938;2024-03-23T07:18:49;93555.03;;;4.83;70.81
8294;BME280;4185;41.506;24.938;2024-03-23T07:21:15;93555.78;;;4.93;69.95
8294;BME280;4185;41.506;24.938;2024-03-23T07:23:42;93569.53;;;5.04;69.87
8294;BME280;4185;41.506;24.938;2024-03-23T07:26:10;93558.31;;;5.15;69.61
8294;BME280;4185;41.506;24.938;2024-03-23T07:28:37;93548.72;;;5.23;69.67
8294;BME280;4185;41.506;24.938;2024-03-23T07:31:09;93549.66;;;5.38;69.33
8294;BME280;4185;41.506;24.938;2024-03-23T07:33:41;93545.91;;;5.44;68.72
8294;BME280;4185;41.506;24.938;2024-03-23T07:36:08;93539.00;;;5.52;68.58
8294;BME280;4185;41.506;24.938;2024-03-23T07:38:34;93538.53;;;5.63;68.51
8294;BME280;4185;41.506;24.938;2024-03-23T07:41:04;93531.31;;;5.78;68.44
8294;BME280;4185;41.506;24.938;2024-03-23T07:43:31;93527.69;;;5.90;68.34
8294;BME280;4185;41.506;24.938;2024-03-23T07:45:57;93527.63;;;6.08;67.42
8294;BME280;4185;41.506;24.938;2024-03-23T07:48:24;93515.13;;;6.19;66.25
8294;BME280;4185;41.506;24.938;2024-03-23T07:50:59;93523.59;;;6.36;66.24
8294;BME280;4185;41.506;24.938;2024-03-23T07:53:26;93520.84;;;6.45;66.35
8294;BME280;4185;41.506;24.938;2024-03-23T07:55:54;93514.03;;;6.59;65.64
8294;BME280;4185;41.506;24.938;2024-03-23T07:58:21;93517.41;;;6.68;65.71
8294;BME280;4185;41.506;24.938;2024-03-23T08:00:47;93508.50;;;6.77;66.17
8294;BME280;4185;41.506;24.938;2024-03-23T08:03:14;93515.44;;;6.92;65.32
8294;BME280;4185;41.506;24.938;2024-03-23T08:05:40;93509.34;;;7.06;64.88
8294;BME280;4185;41.506;24.938;2024-03-23T08:08:08;93511.06;;;7.18;63.80
8294;BME280;4185;41.506;24.938;2024-03-23T08:10:34;93505.47;;;7.36;62.63
8294;BME280;4185;41.506;24.938;2024-03-23T08:13:00;93507.72;;;7.53;60.86
8294;BME280;4185;41.506;24.938;2024-03-23T08:15:26;93505.78;;;7.68;57.50
8294;BME280;4185;41.506;24.938;2024-03-23T08:17:53;93506.25;;;7.81;55.79
8294;BME280;4185;41.506;24.938;2024-03-23T08:20:19;93500.81;;;7.95;53.06
8294;BME280;4185;41.506;24.938;2024-03-23T08:22:45;93494.19;;;8.11;50.13
8294;BME280;4185;41.506;24.938;2024-03-23T08:25:13;93488.84;;;8.31;48.51
8294;BME280;4185;41.506;24.938;2024-03-23T08:27:39;93482.94;;;8.47;48.30
8294;BME280;4185;41.506;24.938;2024-03-23T08:30:06;93480.75;;;8.51;49.94
8294;BME280;4185;41.506;24.938;2024-03-23T08:32:33;93484.81;;;8.61;48.68
8294;BME280;4185;41.506;24.938;2024-03-23T08:34:59;93484.97;;;8.72;47.12
8294;BME280;4185;41.506;24.938;2024-03-23T08:37:25;93491.25;;;8.84;43.71
8294;BME280;4185;41.506;24.938;2024-03-23T08:39:52;93485.44;;;8.91;43.34
8294;BME280;4185;41.506;24.938;2024-03-23T08:42:20;93487.78;;;9.03;39.77
8294;BME280;4185;41.506;24.938;2024-03-23T08:44:46;93483.00;;;9.13;42.45
8294;BME280;4185;41.506;24.938;2024-03-23T08:47:15;93480.19;;;9.27;43.31
8294;BME280;4185;41.506;24.938;2024-03-23T08:49:40;93470.69;;;9.37;41.73
8294;BME280;4185;41.506;24.938;2024-03-23T08:52:07;93471.31;;;9.52;41.71
8294;BME280;4185;41.506;24.938;2024-03-23T08:54:33;93469.69;;;9.60;42.04
8294;BME280;4185;41.506;24.938;2024-03-23T08:57:00;93470.72;;;9.68;40.13
8294;BME280;4185;41.506;24.938;2024-03-23T08:59:27;93459.25;;;9.79;40.09
8294;BME280;4185;41.506;24.938;2024-03-23T09:01:54;93457.56;;;9.87;40.80
8294;BME280;4185;41.506;24.938;2024-03-23T09:04:19;93456.91;;;9.98;39.15
8294;BME280;4185;41.506;24.938;2024-03-23T09:06:47;93448.78;;;10.03;40.19
8294;BME280;4185;41.506;24.938;2024-03-23T09:09:12;93438.81;;;10.15;39.20
8294;BME280;4185;41.506;24.938;2024-03-23T09:11:39;93440.59;;;10.29;39.57
8294;BME280;4185;41.506;24.938;2024-03-23T09:14:05;93437.25;;;10.45;38.84
8294;BME280;4185;41.506;24.938;2024-03-23T09:16:33;93433.88;;;10.61;39.68
8294;BME280;4185;41.506;24.938;2024-03-23T09:18:59;93433.94;;;10.72;41.07
8294;BME280;4185;41.506;24.938;2024-03-23T09:21:25;93429.28;;;10.83;40.39
8294;BME280;4185;41.506;24.938;2024-03-23T09:23:51;93426.59;;;10.89;38.77
8294;BME280;4185;41.506;24.938;2024-03-23T09:26:18;93418.47;;;11.00;37.53
8294;BME280;4185;41.506;24.938;2024-03-23T09:28:44;93420.97;;;11.09;38.10
8294;BME280;4185;41.506;24.938;2024-03-23T09:31:10;93410.63;;;11.24;39.05
8294;BME280;4185;41.506;24.938;2024-03-23T09:33:41;93400.00;;;11.37;38.57
8294;BME280;4185;41.506;24.938;2024-03-23T09:36:09;93404.47;;;11.46;37.52
8294;BME280;4185;41.506;24.938;2024-03-23T09:38:35;93404.25;;;11.55;37.50
8294;BME280;4185;41.506;24.938;2024-03-23T09:41:06;93398.78;;;11.60;38.26
8294;BME280;4185;41.506;24.938;2024-03-23T09:43:32;93393.38;;;11.66;37.89
8294;BME280;4185;41.506;24.938;2024-03-23T09:45:59;93385.97;;;11.77;37.94
8294;BME280;4185;41.506;24.938;2024-03-23T09:48:27;93387.19;;;11.87;38.74
8294;BME280;4185;41.506;24.938;2024-03-23T09:50:55;93385.94;;;11.99;39.66
8294;BME280;4185;41.506;24.938;2024-03-23T09:53:21;93382.47;;;12.15;38.61
8294;BME280;4185;41.506;24.938;2024-03-23T09:55:48;93384.19;;;12.18;37.48
8294;BME280;4185;41.506;24.938;2024-03-23T09:58:18;93376.25;;;12.26;37.87
8294;BME280;4185;41.506;24.938;2024-03-23T10:00:45;93372.28;;;12.33;37.39
8294;BME280;4185;41.506;24.938;2024-03-23T10:03:11;93356.91;;;12.41;37.07
8294;BME280;4185;41.506;24.938;2024-03-23T10:05:38;93363.31;;;12.49;37.35
8294;BME280;4185;41.506;24.938;2024-03-23T10:08:17;93363.78;;;12.58;37.07
8294;BME280;4185;41.506;24.938;2024-03-23T10:10:45;93371.88;;;12.75;36.95
8294;BME280;4185;41.506;24.938;2024-03-23T10:13:14;93363.88;;;12.88;37.38
8294;BME280;4185;41.506;24.938;2024-03-23T10:15:55;93356.91;;;12.98;37.02
8294;BME280;4185;41.506;24.938;2024-03-23T10:18:21;93345.72;;;13.07;37.08
8294;BME280;4185;41.506;24.938;2024-03-23T10:20:52;93345.19;;;13.14;37.44
8294;BME280;4185;41.506;24.938;2024-03-23T10:23:32;93343.66;;;13.24;36.91
8294;BME280;4185;41.506;24.938;2024-03-23T10:26:12;93341.81;;;13.37;37.26
8294;BME280;4185;41.506;24.938;2024-03-23T10:28:53;93334.28;;;13.49;36.81
8294;BME280;4185;41.506;24.938;2024-03-23T10:31:22;93338.69;;;13.58;36.06
8294;BME280;4185;41.506;24.938;2024-03-23T10:33:48;93337.38;;;13.64;37.05
8294;BME280;4185;41.506;24.938;2024-03-23T10:36:15;93331.75;;;13.86;38.31
8294;BME280;4185;41.506;24.938;2024-03-23T10:38:43;93325.59;;;14.04;37.58
8294;BME280;4185;41.506;24.938;2024-03-23T10:41:11;93320.94;;;14.23;38.58
8294;BME280;4185;41.506;24.938;2024-03-23T10:43:37;93319.53;;;14.41;38.51
8294;BME280;4185;41.506;24.938;2024-03-23T10:46:04;93321.84;;;14.55;37.32
8294;BME280;4185;41.506;24.938;2024-03-23T10:48:30;93313.06;;;14.62;35.34
8294;BME280;4185;41.506;24.938;2024-03-23T10:50:57;93305.47;;;14.74;36.33
8294;BME280;4185;41.506;24.938;2024-03-23T10:53:26;93301.34;;;14.86;36.17
8294;BME280;4185;41.506;24.938;2024-03-23T10:55:55;93294.88;;;15.02;36.80
8294;BME280;4185;41.506;24.938;2024-03-23T10:58:24;93295.03;;;15.10;35.67
8294;BME280;4185;41.506;24.938;2024-03-23T11:00:52;93295.94;;;14.99;35.68
8294;BME280;4185;41.506;24.938;2024-03-23T11:03:32;93296.75;;;14.94;35.33
8294;BME280;4185;41.506;24.938;2024-03-23T11:06:00;93291.19;;;15.00;36.49
8294;BME280;4185;41.506;24.938;2024-03-23T11:08:33;93290.72;;;15.14;37.19
8294;BME280;4185;41.506;24.938;2024-03-23T11:11:21;93286.88;;;15.41;37.26
8294;BME280;4185;41.506;24.938;2024-03-23T11:13:48;93279.50;;;15.18;37.01
8294;BME280;4185;41.506;24.938;2024-03-23T11:16:16;93273.88;;;14.92;36.66
8294;BME280;4185;41.506;24.938;2024-03-23T11:18:43;93280.03;;;14.79;37.05
8294;BME280;4185;41.506;24.938;2024-03-23T11:21:10;93284.81;;;14.92;37.87
8294;BME280;4185;41.506;24.938;2024-03-23T11:23:36;93262.19;;;15.28;38.22
8294;BME280;4185;41.506;24.938;2024-03-23T11:26:07;93272.28;;;15.52;36.93
8294;BME280;4185;41.506;24.938;2024-03-23T11:28:34;93267.38;;;15.76;38.02
8294;BME280;4185;41.506;24.938;2024-03-23T11:31:01;93263.72;;;16.00;36.79
8294;BME280;4185;41.506;24.938;2024-03-23T11:33:34;93257.59;;;15.94;36.74
8294;BME280;4185;41.506;24.938;2024-03-23T11:36:01;93258.84;;;15.80;36.36
8294;BME280;4185;41.506;24.938;2024-03-23T11:38:26;93249.78;;;15.72;36.63
8294;BME280;4185;41.506;24.938;2024-03-23T11:40:53;93241.59;;;15.98;37.55
8294;BME280;4185;41.506;24.938;2024-03-23T11:43:20;93246.84;;;16.22;36.83
8294;BME280;4185;41.506;24.938;2024-03-23T11:45:49;93241.56;;;16.37;36.88
8294;BME280;4185;41.506;24.938;2024-03-23T11:48:18;93242.38;;;16.71;37.09
8294;BME280;4185;41.506;24.938;2024-03-23T11:50:47;93232.59;;;16.63;35.43
8294;BME280;4185;41.506;24.938;2024-03-23T11:53:15;93230.22;;;16.46;35.45
8294;BME280;4185;41.506;24.938;2024-03-23T11:55:43;93230.31;;;16.15;35.42
8294;BME280;4185;41.506;24.938;2024-03-23T11:58:10;93227.75;;;16.43;36.62
8294;BME280;4185;41.506;24.938;2024-03-23T12:00:37;93229.53;;;16.66;35.36
8294;BME280;4185;41.506;24.938;2024-03-23T12:03:05;93215.72;;;16.72;35.59
8294;BME280;4185;41.506;24.938;2024-03-23T12:05:32;93217.09;;;16.65;35.12
8294;BME280;4185;41.506;24.938;2024-03-23T12:08:21;93221.34;;;16.53;35.48
8294;BME280;4185;41.506;24.938;2024-03-23T12:10:51;93232.16;;;16.72;35.71
8294;BME280;4185;41.506;24.938;2024-03-23T12:13:18;93223.41;;;16.73;34.99
8294;BME280;4185;41.506;24.938;2024-03-23T12:15:45;93208.44;;;16.61;35.63
8294;BME280;4185;41.506;24.938;2024-03-23T12:18:13;93224.53;;;16.78;35.98
8294;BME280;4185;41.506;24.938;2024-03-23T12:20:40;93218.53;;;16.79;35.97
8294;BME280;4185;41.506;24.938;2024-03-23T12:23:07;93211.66;;;16.86;35.88
8294;BME280;4185;41.506;24.938;2024-03-23T12:25:35;93203.81;;;16.90;36.35
8294;BME280;4185;41.506;24.938;2024-03-23T12:28:01;93208.25;;;16.93;36.20
8294;BME280;4185;41.506;24.938;2024-03-23T12:30:28;93201.38;;;16.99;35.87
8294;BME280;4185;41.506;24.938;2024-03-23T12:32:54;93203.91;;;16.97;36.60
8294;BME280;4185;41.506;24.938;2024-03-23T12:35:23;93203.81;;;16.90;37.54
8294;BME280;4185;41.506;24.938;2024-03-23T12:37:49;93204.72;;;17.05;37.87
8294;BME280;4185;41.506;24.938;2024-03-23T12:40:16;93199.78;;;17.04;37.55
8294;BME280;4185;41.506;24.938;2024-03-23T12:42:41;93199.38;;;17.21;37.79
8294;BME280;4185;41.506;24.938;2024-03-23T12:45:08;93199.91;;;17.40;37.32
8294;BME280;4185;41.506;24.938;2024-03-23T12:47:34;93209.28;;;17.44;37.51
8294;BME280;4185;41.506;24.938;2024-03-23T12:50:01;93196.31;;;17.45;37.52
8294;BME280;4185;41.506;24.938;2024-03-23T12:52:28;93192.63;;;17.63;37.33
8294;BME280;4185;41.506;24.938;2024-03-23T12:54:55;93187.28;;;17.37;37.78
8294;BME280;4185;41.506;24.938;2024-03-23T12:57:22;93194.50;;;17.06;38.44
8294;BME280;4185;41.506;24.938;2024-03-23T12:59:50;93206.06;;;17.12;37.88
8294;BME280;4185;41.506;24.938;2024-03-23T13:02:17;93190.94;;;16.64;38.85
8294;BME280;4185;41.506;24.938;2024-03-23T13:04:46;93191.63;;;16.78;39.25
8294;BME280;4185;41.506;24.938;2024-03-23T13:07:12;93196.47;;;16.85;38.63
8294;BME280;4185;41.506;24.938;2024-03-23T13:09:40;93189.47;;;17.18;37.88
8294;BME280;4185;41.506;24.938;2024-03-23T13:12:06;93186.13;;;17.53;37.33
8294;BME280;4185;41.506;24.938;2024-03-23T13:14:33;93185.66;;;17.62;37.46
8294;BME280;4185;41.506;24.938;2024-03-23T13:17:00;93174.88;;;17.23;38.36
8294;BME280;4185;41.506;24.938;2024-03-23T13:19:27;93181.09;;;16.35;39.93
8294;BME280;4185;41.506;24.938;2024-03-23T13:21:56;93180.91;;;15.94;40.68
8294;BME280;4185;41.506;24.938;2024-03-23T13:24:23;93181.09;;;15.83;41.37
8294;BME280;4185;41.506;24.938;2024-03-23T13:26:51;93176.47;;;15.78;41.55
8294;BME280;4185;41.506;24.938;2024-03-23T13:29:18;93174.56;;;15.73;40.93
8294;BME280;4185;41.506;24.938;2024-03-23T13:31:44;93175.31;;;15.47;41.42
8294;BME280;4185;41.506;24.938;2024-03-23T13:34:11;93168.34;;;15.46;41.71
8294;BME280;4185;41.506;24.938;2024-03-23T13:36:38;93174.91;;;15.25;42.52
8294;BME280;4185;41.506;24.938;2024-03-23T13:39:05;93174.06;;;15.17;42.95
8294;BME280;4185;41.506;24.938;2024-03-23T13:41:37;93171.75;;;15.21;43.39
8294;BME280;4185;41.506;24.938;2024-03-23T13:44:05;93172.56;;;15.16;43.67
8294;BME280;4185;41.506;24.938;2024-03-23T13:46:32;93170.50;;;15.22;43.53
8294;BME280;4185;41.506;24.938;2024-03-23T13:48:58;93163.44;;;15.13;43.75
8294;BME280;4185;41.506;24.938;2024-03-23T13:51:25;93166.38;;;15.15;44.24
8294;BME280;4185;41.506;24.938;2024-03-23T13:53:52;93166.06;;;15.19;44.45
8294;BME280;4185;41.506;24.938;2024-03-23T13:56:19;93169.72;;;15.08;44.91
8294;BME280;4185;41.506;24.938;2024-03-23T13:58:45;93160.78;;;15.08;44.69
8294;BME280;4185;41.506;24.938;2024-03-23T14:01:14;93159.81;;;15.05;45.13
8294;BME280;4185;41.506;24.938;2024-03-23T14:03:41;93154.88;;;15.04;45.06
8294;BME280;4185;41.506;24.938;2024-03-23T14:06:08;93166.06;;;15.19;44.99
8294;BME280;4185;41.506;24.938;2024-03-23T14:08:34;93160.41;;;15.30;44.64
8294;BME280;4185;41.506;24.938;2024-03-23T14:11:04;93154.63;;;15.33;45.04